CheckWX is a tool to help pilots better visualize weather data.  It is not intended as a substitute for an official pre-flight weather briefing.

16:18:38 UTC

KSMQ METAR
Somerset Airport
Somerville, New Jersey, USA
Current

26 mins ago

KSMQ 131553Z AUTO 31004KT 10SM BKN014 OVC020 03/M01 A3034 RMK AO2 SLP277 T00331011
Observed
Dec-13 @ 15:53 UTC
Wind
  • 310° at 4 KTS
Visibility
10 SM
Flight Rules
MVFR
Cloud Levels
  • Broken at 1,400' AGL
  • Overcast at 2,000' AGL
Temperature
C / 37°F
Dewpoint
-1°C / 30°F
Humidity
75%
Altimeter
30.34" Hg
Pressure
1027.42 hPa
Previous

38 mins ago

KSMQ 131541Z AUTO 30005KT 10SM BKN014 BKN021 OVC030 03/M01 A3036 RMK AO2 T00281011
Observed
Dec-13 @ 15:41 UTC
Wind
  • 300° at 5 KTS
Visibility
10 SM
Flight Rules
MVFR
Cloud Levels
  • Broken at 1,400' AGL
  • Broken at 2,100' AGL
  • Overcast at 3,000' AGL
Temperature
C / 37°F
Dewpoint
-1°C / 30°F
Humidity
75%
Altimeter
30.36" Hg
Pressure
1028.12 hPa
Previous

53 mins ago

KSMQ 131526Z AUTO 00000KT 10SM FEW017 OVC030 03/M01 A3035 RMK AO2 T00331006
Observed
Dec-13 @ 15:26 UTC
Visibility
10 SM
Flight Rules
MVFR
Cloud Levels
  • Few at 1,700' AGL
  • Overcast at 3,000' AGL
Temperature
C / 37°F
Dewpoint
-1°C / 30°F
Humidity
75%
Altimeter
30.35" Hg
Pressure
1027.82 hPa